sensor_id;sensor_type;location;lat;lon;timestamp;P1;durP1;ratioP1;P2;durP2;ratioP2
38994;SDS011;24769;18.712;99.000;2023-04-03T00:01:59;129.00;;;126.80;;
38994;SDS011;24769;18.712;99.000;2023-04-03T00:04:26;123.60;;;123.20;;
38994;SDS011;24769;18.712;99.000;2023-04-03T00:06:53;133.20;;;129.60;;
38994;SDS011;24769;18.712;99.000;2023-04-03T00:09:20;106.00;;;105.20;;
38994;SDS011;24769;18.712;99.000;2023-04-03T00:11:46;125.60;;;124.40;;
38994;SDS011;24769;18.712;99.000;2023-04-03T00:14:13;128.20;;;126.60;;
38994;SDS011;24769;18.712;99.000;2023-04-03T00:16:40;114.00;;;111.40;;
38994;SDS011;24769;18.712;99.000;2023-04-03T00:19:07;114.00;;;113.00;;
38994;SDS011;24769;18.712;99.000;2023-04-03T00:21:33;116.80;;;116.00;;
38994;SDS011;24769;18.712;99.000;2023-04-03T00:24:01;116.40;;;114.60;;
38994;SDS011;24769;18.712;99.000;2023-04-03T00:26:28;128.80;;;127.80;;
38994;SDS011;24769;18.712;99.000;2023-04-03T00:28:54;130.80;;;127.60;;
38994;SDS011;24769;18.712;99.000;2023-04-03T00:31:21;115.40;;;113.40;;
38994;SDS011;24769;18.712;99.000;2023-04-03T00:33:48;113.60;;;112.20;;
38994;SDS011;24769;18.712;99.000;2023-04-03T00:36:15;106.60;;;105.40;;
38994;SDS011;24769;18.712;99.000;2023-04-03T00:38:41;121.20;;;118.20;;
38994;SDS011;24769;18.712;99.000;2023-04-03T00:41:08;109.20;;;109.20;;
38994;SDS011;24769;18.712;99.000;2023-04-03T00:43:35;113.00;;;112.00;;
38994;SDS011;24769;18.712;99.000;2023-04-03T00:46:01;111.60;;;110.20;;
38994;SDS011;24769;18.712;99.000;2023-04-03T00:48:32;110.40;;;109.40;;
38994;SDS011;24769;18.712;99.000;2023-04-03T00:51:07;101.60;;;101.60;;
38994;SDS011;24769;18.712;99.000;2023-04-03T00:53:39;106.60;;;103.20;;
38994;SDS011;24769;18.712;99.000;2023-04-03T00:56:11;104.00;;;103.80;;
38994;SDS011;24769;18.712;99.000;2023-04-03T00:59:02;99.60;;;98.40;;
38994;SDS011;24769;18.712;99.000;2023-04-03T01:01:30;99.00;;;99.00;;
38994;SDS011;24769;18.712;99.000;2023-04-03T01:04:00;100.80;;;99.60;;
38994;SDS011;24769;18.712;99.000;2023-04-03T01:06:31;103.60;;;103.60;;
38994;SDS011;24769;18.712;99.000;2023-04-03T01:09:00;98.20;;;97.20;;
38994;SDS011;24769;18.712;99.000;2023-04-03T01:11:28;80.80;;;77.20;;
38994;SDS011;24769;18.712;99.000;2023-04-03T01:13:55;85.80;;;85.80;;
38994;SDS011;24769;18.712;99.000;2023-04-03T01:16:22;98.00;;;97.60;;
38994;SDS011;24769;18.712;99.000;2023-04-03T01:18:55;98.40;;;97.80;;
38994;SDS011;24769;18.712;99.000;2023-04-03T01:26:43;89.40;;;88.80;;
38994;SDS011;24769;18.712;99.000;2023-04-03T01:29:10;88.00;;;86.50;;
38994;SDS011;24769;18.712;99.000;2023-04-03T01:34:20;85.50;;;84.75;;
38994;SDS011;24769;18.712;99.000;2023-04-03T01:36:48;84.25;;;83.75;;
38994;SDS011;24769;18.712;99.000;2023-04-03T01:39:16;83.75;;;83.25;;
38994;SDS011;24769;18.712;99.000;2023-04-03T01:41:43;83.50;;;83.50;;
38994;SDS011;24769;18.712;99.000;2023-04-03T01:44:11;78.00;;;74.75;;
38994;SDS011;24769;18.712;99.000;2023-04-03T01:46:37;86.50;;;86.25;;
38994;SDS011;24769;18.712;99.000;2023-04-03T01:49:04;84.75;;;83.75;;
38994;SDS011;24769;18.712;99.000;2023-04-03T01:51:31;86.25;;;85.75;;
38994;SDS011;24769;18.712;99.000;2023-04-03T01:53:58;82.25;;;81.00;;
38994;SDS011;24769;18.712;99.000;2023-04-03T01:56:25;84.75;;;84.25;;
38994;SDS011;24769;18.712;99.000;2023-04-03T01:58:52;85.75;;;85.75;;
38994;SDS011;24769;18.712;99.000;2023-04-03T02:01:18;96.25;;;95.25;;
38994;SDS011;24769;18.712;99.000;2023-04-03T02:03:46;83.00;;;83.00;;
38994;SDS011;24769;18.712;99.000;2023-04-03T02:06:13;88.00;;;87.75;;
38994;SDS011;24769;18.712;99.000;2023-04-03T02:08:39;85.00;;;85.00;;
38994;SDS011;24769;18.712;99.000;2023-04-03T02:11:07;83.75;;;83.75;;
38994;SDS011;24769;18.712;99.000;2023-04-03T02:13:33;85.25;;;84.75;;
38994;SDS011;24769;18.712;99.000;2023-04-03T02:16:05;81.00;;;80.25;;
38994;SDS011;24769;18.712;99.000;2023-04-03T02:18:33;82.75;;;82.50;;
38994;SDS011;24769;18.712;99.000;2023-04-03T02:21:00;85.50;;;84.75;;
38994;SDS011;24769;18.712;99.000;2023-04-03T02:23:26;88.50;;;88.25;;
38994;SDS011;24769;18.712;99.000;2023-04-03T02:25:53;83.25;;;83.25;;
38994;SDS011;24769;18.712;99.000;2023-04-03T02:28:28;81.25;;;81.25;;
38994;SDS011;24769;18.712;99.000;2023-04-03T02:30:54;86.50;;;85.25;;
38994;SDS011;24769;18.712;99.000;2023-04-03T02:33:21;78.00;;;77.50;;
38994;SDS011;24769;18.712;99.000;2023-04-03T02:35:51;84.25;;;83.25;;
38994;SDS011;24769;18.712;99.000;2023-04-03T02:38:19;82.75;;;82.75;;
38994;SDS011;24769;18.712;99.000;2023-04-03T02:40:46;80.25;;;78.75;;
38994;SDS011;24769;18.712;99.000;2023-04-03T02:43:13;80.00;;;79.75;;
38994;SDS011;24769;18.712;99.000;2023-04-03T02:45:40;78.00;;;76.50;;
38994;SDS011;24769;18.712;99.000;2023-04-03T02:48:06;78.50;;;77.50;;
38994;SDS011;24769;18.712;99.000;2023-04-03T02:50:33;81.50;;;81.50;;
38994;SDS011;24769;18.712;99.000;2023-04-03T02:53:00;79.25;;;77.50;;
38994;SDS011;24769;18.712;99.000;2023-04-03T02:55:26;81.75;;;81.00;;
38994;SDS011;24769;18.712;99.000;2023-04-03T02:57:53;79.25;;;79.25;;
38994;SDS011;24769;18.712;99.000;2023-04-03T03:00:20;79.75;;;79.50;;
38994;SDS011;24769;18.712;99.000;2023-04-03T03:02:48;81.25;;;81.00;;
38994;SDS011;24769;18.712;99.000;2023-04-03T03:05:15;77.25;;;76.50;;
38994;SDS011;24769;18.712;99.000;2023-04-03T03:07:42;79.50;;;78.25;;
38994;SDS011;24769;18.712;99.000;2023-04-03T03:10:08;74.25;;;69.75;;
38994;SDS011;24769;18.712;99.000;2023-04-03T03:12:35;75.50;;;72.75;;
38994;SDS011;24769;18.712;99.000;2023-04-03T03:15:02;75.50;;;73.00;;
38994;SDS011;24769;18.712;99.000;2023-04-03T03:17:29;75.75;;;74.00;;
38994;SDS011;24769;18.712;99.000;2023-04-03T03:19:55;74.25;;;71.50;;
38994;SDS011;24769;18.712;99.000;2023-04-03T03:22:22;77.75;;;76.25;;
38994;SDS011;24769;18.712;99.000;2023-04-03T03:24:49;77.75;;;76.75;;
38994;SDS011;24769;18.712;99.000;2023-04-03T03:27:15;77.25;;;76.25;;
38994;SDS011;24769;18.712;99.000;2023-04-03T03:29:42;75.75;;;73.50;;
38994;SDS011;24769;18.712;99.000;2023-04-03T03:32:09;76.75;;;75.50;;
38994;SDS011;24769;18.712;99.000;2023-04-03T03:34:36;71.50;;;66.00;;
38994;SDS011;24769;18.712;99.000;2023-04-03T03:37:02;70.00;;;62.50;;
38994;SDS011;24769;18.712;99.000;2023-04-03T03:39:29;73.50;;;69.50;;
38994;SDS011;24769;18.712;99.000;2023-04-03T03:41:56;74.75;;;72.25;;
38994;SDS011;24769;18.712;99.000;2023-04-03T03:44:23;74.50;;;71.50;;
38994;SDS011;24769;18.712;99.000;2023-04-03T03:46:50;69.60;;;62.20;;
38994;SDS011;24769;18.712;99.000;2023-04-03T03:49:16;72.75;;;67.25;;
38994;SDS011;24769;18.712;99.000;2023-04-03T03:51:47;74.00;;;70.60;;
38994;SDS011;24769;18.712;99.000;2023-04-03T03:54:16;72.60;;;67.60;;
38994;SDS011;24769;18.712;99.000;2023-04-03T03:56:42;71.60;;;65.80;;
38994;SDS011;24769;18.712;99.000;2023-04-03T03:59:11;72.50;;;67.50;;
38994;SDS011;24769;18.712;99.000;2023-04-03T04:01:37;73.00;;;67.00;;
38994;SDS011;24769;18.712;99.000;2023-04-03T04:04:05;69.00;;;61.20;;
38994;SDS011;24769;18.712;99.000;2023-04-03T04:06:31;70.40;;;63.40;;
38994;SDS011;24769;18.712;99.000;2023-04-03T04:08:58;68.00;;;60.00;;
38994;SDS011;24769;18.712;99.000;2023-04-03T04:11:24;67.60;;;59.60;;
38994;SDS011;24769;18.712;99.000;2023-04-03T04:13:52;71.40;;;65.20;;
38994;SDS011;24769;18.712;99.000;2023-04-03T04:16:19;73.60;;;70.20;;
38994;SDS011;24769;18.712;99.000;2023-04-03T04:18:46;69.80;;;61.40;;
38994;SDS011;24769;18.712;99.000;2023-04-03T04:21:12;71.20;;;65.20;;
38994;SDS011;24769;18.712;99.000;2023-04-03T04:23:39;66.00;;;56.80;;
38994;SDS011;24769;18.712;99.000;2023-04-03T04:26:05;69.40;;;62.00;;
38994;SDS011;24769;18.712;99.000;2023-04-03T04:28:32;73.20;;;69.60;;
38994;SDS011;24769;18.712;99.000;2023-04-03T04:30:58;70.00;;;63.20;;
38994;SDS011;24769;18.712;99.000;2023-04-03T04:33:25;70.80;;;64.00;;
38994;SDS011;24769;18.712;99.000;2023-04-03T04:35:52;70.40;;;63.00;;
38994;SDS011;24769;18.712;99.000;2023-04-03T04:38:18;68.40;;;61.40;;
38994;SDS011;24769;18.712;99.000;2023-04-03T04:40:45;71.20;;;65.40;;
38994;SDS011;24769;18.712;99.000;2023-04-03T04:43:12;68.60;;;61.40;;
38994;SDS011;24769;18.712;99.000;2023-04-03T04:45:40;64.80;;;55.20;;
38994;SDS011;24769;18.712;99.000;2023-04-03T04:48:07;68.40;;;61.80;;
38994;SDS011;24769;18.712;99.000;2023-04-03T04:50:33;68.20;;;60.20;;
38994;SDS011;24769;18.712;99.000;2023-04-03T04:53:00;68.40;;;60.80;;
38994;SDS011;24769;18.712;99.000;2023-04-03T04:55:27;70.40;;;63.20;;
38994;SDS011;24769;18.712;99.000;2023-04-03T04:57:53;67.40;;;59.60;;
38994;SDS011;24769;18.712;99.000;2023-04-03T05:00:20;67.40;;;58.80;;
38994;SDS011;24769;18.712;99.000;2023-04-03T05:02:47;68.00;;;60.60;;
38994;SDS011;24769;18.712;99.000;2023-04-03T05:05:13;68.00;;;59.40;;
38994;SDS011;24769;18.712;99.000;2023-04-03T05:07:40;65.20;;;55.40;;
38994;SDS011;24769;18.712;99.000;2023-04-03T05:10:07;68.00;;;60.40;;
38994;SDS011;24769;18.712;99.000;2023-04-03T05:12:34;65.60;;;55.80;;
38994;SDS011;24769;18.712;99.000;2023-04-03T05:15:01;66.40;;;57.00;;
38994;SDS011;24769;18.712;99.000;2023-04-03T05:17:28;66.20;;;58.20;;
38994;SDS011;24769;18.712;99.000;2023-04-03T05:19:54;69.20;;;60.80;;
38994;SDS011;24769;18.712;99.000;2023-04-03T05:22:21;67.00;;;58.00;;
38994;SDS011;24769;18.712;99.000;2023-04-03T05:24:47;69.60;;;62.20;;
38994;SDS011;24769;18.712;99.000;2023-04-03T05:27:14;63.60;;;53.60;;
38994;SDS011;24769;18.712;99.000;2023-04-03T05:29:42;70.20;;;63.20;;
38994;SDS011;24769;18.712;99.000;2023-04-03T05:32:09;66.40;;;57.60;;
38994;SDS011;24769;18.712;99.000;2023-04-03T05:34:36;70.60;;;63.20;;
38994;SDS011;24769;18.712;99.000;2023-04-03T05:37:03;68.60;;;59.40;;
38994;SDS011;24769;18.712;99.000;2023-04-03T05:39:30;68.00;;;58.80;;
38994;SDS011;24769;18.712;99.000;2023-04-03T05:41:57;65.40;;;55.20;;
38994;SDS011;24769;18.712;99.000;2023-04-03T05:44:23;65.20;;;55.80;;
38994;SDS011;24769;18.712;99.000;2023-04-03T05:46:50;67.40;;;58.20;;
38994;SDS011;24769;18.712;99.000;2023-04-03T05:49:17;62.40;;;50.80;;
38994;SDS011;24769;18.712;99.000;2023-04-03T05:51:43;64.20;;;53.00;;
38994;SDS011;24769;18.712;99.000;2023-04-03T05:54:12;64.40;;;52.80;;
38994;SDS011;24769;18.712;99.000;2023-04-03T05:56:50;61.80;;;50.80;;
38994;SDS011;24769;18.712;99.000;2023-04-03T05:59:18;62.80;;;52.40;;
38994;SDS011;24769;18.712;99.000;2023-04-03T06:01:45;62.80;;;51.80;;
38994;SDS011;24769;18.712;99.000;2023-04-03T06:04:13;62.40;;;51.20;;
38994;SDS011;24769;18.712;99.000;2023-04-03T06:06:44;64.80;;;55.00;;
38994;SDS011;24769;18.712;99.000;2023-04-03T06:09:17;59.80;;;49.20;;
38994;SDS011;24769;18.712;99.000;2023-04-03T06:11:44;59.80;;;50.00;;
38994;SDS011;24769;18.712;99.000;2023-04-03T06:14:11;60.60;;;49.40;;
38994;SDS011;24769;18.712;99.000;2023-04-03T06:16:38;57.40;;;47.40;;
38994;SDS011;24769;18.712;99.000;2023-04-03T06:19:05;60.00;;;49.60;;
38994;SDS011;24769;18.712;99.000;2023-04-03T06:21:35;59.40;;;49.40;;
38994;SDS011;24769;18.712;99.000;2023-04-03T06:24:03;54.60;;;45.60;;
38994;SDS011;24769;18.712;99.000;2023-04-03T06:26:31;57.00;;;47.80;;
38994;SDS011;24769;18.712;99.000;2023-04-03T06:28:59;58.80;;;49.00;;
38994;SDS011;24769;18.712;99.000;2023-04-03T06:31:27;55.20;;;46.20;;
38994;SDS011;24769;18.712;99.000;2023-04-03T06:33:54;53.40;;;45.20;;
38994;SDS011;24769;18.712;99.000;2023-04-03T06:36:21;56.60;;;47.40;;
38994;SDS011;24769;18.712;99.000;2023-04-03T06:38:48;55.20;;;46.60;;
38994;SDS011;24769;18.712;99.000;2023-04-03T06:41:15;55.80;;;46.40;;
38994;SDS011;24769;18.712;99.000;2023-04-03T06:43:43;52.40;;;44.60;;
38994;SDS011;24769;18.712;99.000;2023-04-03T06:46:14;58.20;;;48.40;;
38994;SDS011;24769;18.712;99.000;2023-04-03T06:48:45;56.80;;;48.00;;
38994;SDS011;24769;18.712;99.000;2023-04-03T06:53:47;55.00;;;46.20;;
38994;SDS011;24769;18.712;99.000;2023-04-03T06:56:14;56.60;;;47.40;;
38994;SDS011;24769;18.712;99.000;2023-04-03T06:58:41;52.60;;;44.60;;
38994;SDS011;24769;18.712;99.000;2023-04-03T07:01:09;55.60;;;47.00;;
38994;SDS011;24769;18.712;99.000;2023-04-03T07:03:37;51.60;;;43.80;;
38994;SDS011;24769;18.712;99.000;2023-04-03T07:06:05;51.80;;;43.40;;
38994;SDS011;24769;18.712;99.000;2023-04-03T07:08:33;49.20;;;42.00;;
38994;SDS011;24769;18.712;99.000;2023-04-03T07:11:00;51.80;;;44.00;;
38994;SDS011;24769;18.712;99.000;2023-04-03T07:13:28;49.00;;;41.80;;
38994;SDS011;24769;18.712;99.000;2023-04-03T07:15:54;45.40;;;39.00;;
38994;SDS011;24769;18.712;99.000;2023-04-03T07:18:21;46.40;;;40.20;;
38994;SDS011;24769;18.712;99.000;2023-04-03T07:20:48;49.60;;;42.80;;
38994;SDS011;24769;18.712;99.000;2023-04-03T07:23:15;46.00;;;39.40;;
38994;SDS011;24769;18.712;99.000;2023-04-03T07:25:45;50.60;;;43.40;;
38994;SDS011;24769;18.712;99.000;2023-04-03T07:28:13;46.40;;;39.80;;
38994;SDS011;24769;18.712;99.000;2023-04-03T07:30:44;47.00;;;40.00;;
38994;SDS011;24769;18.712;99.000;2023-04-03T07:33:12;45.40;;;39.00;;
38994;SDS011;24769;18.712;99.000;2023-04-03T07:35:41;43.20;;;37.40;;
38994;SDS011;24769;18.712;99.000;2023-04-03T07:38:08;42.60;;;37.00;;
38994;SDS011;24769;18.712;99.000;2023-04-03T07:40:36;45.40;;;39.00;;
38994;SDS011;24769;18.712;99.000;2023-04-03T07:43:04;40.00;;;35.40;;
38994;SDS011;24769;18.712;99.000;2023-04-03T07:45:31;44.80;;;38.80;;
38994;SDS011;24769;18.712;99.000;2023-04-03T07:48:01;43.80;;;37.80;;
38994;SDS011;24769;18.712;99.000;2023-04-03T07:50:28;45.80;;;39.60;;
38994;SDS011;24769;18.712;99.000;2023-04-03T07:52:56;45.00;;;38.80;;
38994;SDS011;24769;18.712;99.000;2023-04-03T07:55:23;43.60;;;37.60;;
38994;SDS011;24769;18.712;99.000;2023-04-03T07:57:50;47.20;;;40.00;;
38994;SDS011;24769;18.712;99.000;2023-04-03T08:00:17;46.60;;;40.00;;
38994;SDS011;24769;18.712;99.000;2023-04-03T08:02:45;40.20;;;35.40;;
38994;SDS011;24769;18.712;99.000;2023-04-03T08:05:17;43.00;;;36.80;;
38994;SDS011;24769;18.712;99.000;2023-04-03T08:07:45;45.20;;;39.20;;
38994;SDS011;24769;18.712;99.000;2023-04-03T08:10:14;44.00;;;38.00;;
38994;SDS011;24769;18.712;99.000;2023-04-03T08:12:41;48.20;;;41.20;;
38994;SDS011;24769;18.712;99.000;2023-04-03T08:15:10;46.60;;;40.20;;
38994;SDS011;24769;18.712;99.000;2023-04-03T08:17:37;49.20;;;42.20;;
38994;SDS011;24769;18.712;99.000;2023-04-03T08:20:04;53.80;;;45.00;;
38994;SDS011;24769;18.712;99.000;2023-04-03T08:22:32;48.20;;;41.20;;
38994;SDS011;24769;18.712;99.000;2023-04-03T08:24:59;49.40;;;42.20;;
38994;SDS011;24769;18.712;99.000;2023-04-03T08:27:27;49.60;;;42.60;;
38994;SDS011;24769;18.712;99.000;2023-04-03T08:29:54;47.60;;;40.80;;
38994;SDS011;24769;18.712;99.000;2023-04-03T08:32:22;48.40;;;41.20;;
38994;SDS011;24769;18.712;99.000;2023-04-03T08:34:49;52.60;;;44.20;;
38994;SDS011;24769;18.712;99.000;2023-04-03T08:37:16;52.20;;;44.00;;
38994;SDS011;24769;18.712;99.000;2023-04-03T08:39:43;50.80;;;42.60;;
38994;SDS011;24769;18.712;99.000;2023-04-03T08:50:39;45.80;;;39.40;;
38994;SDS011;24769;18.712;99.000;2023-04-03T08:53:29;44.00;;;38.00;;
38994;SDS011;24769;18.712;99.000;2023-04-03T08:55:57;47.80;;;41.00;;
38994;SDS011;24769;18.712;99.000;2023-04-03T08:58:29;42.40;;;37.00;;
38994;SDS011;24769;18.712;99.000;2023-04-03T09:01:05;44.20;;;38.00;;
38994;SDS011;24769;18.712;99.000;2023-04-03T09:03:48;46.00;;;39.60;;
38994;SDS011;24769;18.712;99.000;2023-04-03T09:06:32;40.20;;;35.40;;
38994;SDS011;24769;18.712;99.000;2023-04-03T09:09:15;42.40;;;37.00;;
38994;SDS011;24769;18.712;99.000;2023-04-03T09:23:30;45.00;;;39.20;;
38994;SDS011;24769;18.712;99.000;2023-04-03T09:26:07;49.20;;;41.00;;
38994;SDS011;24769;18.712;99.000;2023-04-03T09:28:40;48.60;;;41.60;;
38994;SDS011;24769;18.712;99.000;2023-04-03T09:31:18;46.20;;;39.80;;
38994;SDS011;24769;18.712;99.000;2023-04-03T09:33:57;48.40;;;41.60;;
38994;SDS011;24769;18.712;99.000;2023-04-03T09:36:44;47.40;;;40.60;;
38994;SDS011;24769;18.712;99.000;2023-04-03T09:39:17;48.20;;;40.80;;
38994;SDS011;24769;18.712;99.000;2023-04-03T09:46:56;48.80;;;41.80;;
38994;SDS011;24769;18.712;99.000;2023-04-03T09:49:24;48.20;;;41.20;;
38994;SDS011;24769;18.712;99.000;2023-04-03T09:51:51;50.00;;;42.80;;
38994;SDS011;24769;18.712;99.000;2023-04-03T09:54:37;48.60;;;41.80;;
38994;SDS011;24769;18.712;99.000;2023-04-03T09:57:07;50.40;;;43.00;;
38994;SDS011;24769;18.712;99.000;2023-04-03T09:59:56;52.40;;;44.60;;
38994;SDS011;24769;18.712;99.000;2023-04-03T10:02:35;55.00;;;46.40;;
38994;SDS011;24769;18.712;99.000;2023-04-03T10:05:05;53.80;;;45.00;;
38994;SDS011;24769;18.712;99.000;2023-04-03T10:07:50;51.60;;;43.60;;
38994;SDS011;24769;18.712;99.000;2023-04-03T10:10:18;53.20;;;44.60;;
38994;SDS011;24769;18.712;99.000;2023-04-03T10:12:57;51.60;;;43.40;;
38994;SDS011;24769;18.712;99.000;2023-04-03T10:21:45;54.00;;;45.00;;
38994;SDS011;24769;18.712;99.000;2023-04-03T10:32:45;54.00;;;45.00;;
38994;SDS011;24769;18.712;99.000;2023-04-03T10:35:50;56.60;;;47.20;;
38994;SDS011;24769;18.712;99.000;2023-04-03T10:40:52;60.00;;;49.80;;
38994;SDS011;24769;18.712;99.000;2023-04-03T10:43:38;60.80;;;49.80;;
38994;SDS011;24769;18.712;99.000;2023-04-03T10:51:33;58.60;;;48.60;;
38994;SDS011;24769;18.712;99.000;2023-04-03T10:54:25;62.60;;;51.40;;
38994;SDS011;24769;18.712;99.000;2023-04-03T10:57:18;62.20;;;51.00;;
38994;SDS011;24769;18.712;99.000;2023-04-03T11:00:05;59.60;;;49.40;;
38994;SDS011;24769;18.712;99.000;2023-04-03T11:03:13;60.00;;;50.00;;
38994;SDS011;24769;18.712;99.000;2023-04-03T11:05:44;60.80;;;50.20;;
38994;SDS011;24769;18.712;99.000;2023-04-03T11:11:15;64.00;;;52.60;;
38994;SDS011;24769;18.712;99.000;2023-04-03T11:13:50;59.60;;;49.20;;
38994;SDS011;24769;18.712;99.000;2023-04-03T11:16:27;61.60;;;50.80;;
38994;SDS011;24769;18.712;99.000;2023-04-03T11:21:51;60.40;;;50.00;;
38994;SDS011;24769;18.712;99.000;2023-04-03T11:24:27;60.40;;;49.80;;
38994;SDS011;24769;18.712;99.000;2023-04-03T11:26:56;61.40;;;50.80;;
38994;SDS011;24769;18.712;99.000;2023-04-03T11:29:31;63.50;;;52.00;;
38994;SDS011;24769;18.712;99.000;2023-04-03T11:32:06;59.80;;;49.00;;
38994;SDS011;24769;18.712;99.000;2023-04-03T11:34:45;61.25;;;50.50;;
38994;SDS011;24769;18.712;99.000;2023-04-03T11:40:07;64.50;;;53.00;;
38994;SDS011;24769;18.712;99.000;2023-04-03T11:46:04;67.00;;;55.25;;
38994;SDS011;24769;18.712;99.000;2023-04-03T11:51:02;61.00;;;50.00;;
38994;SDS011;24769;18.712;99.000;2023-04-03T11:53:38;66.75;;;55.00;;
38994;SDS011;24769;18.712;99.000;2023-04-03T12:04:10;61.75;;;51.00;;
38994;SDS011;24769;18.712;99.000;2023-04-03T12:06:47;59.00;;;48.75;;
38994;SDS011;24769;18.712;99.000;2023-04-03T12:15:20;64.25;;;53.00;;
38994;SDS011;24769;18.712;99.000;2023-04-03T12:17:52;66.25;;;54.75;;
38994;SDS011;24769;18.712;99.000;2023-04-03T12:23:36;66.50;;;55.75;;
38994;SDS011;24769;18.712;99.000;2023-04-03T12:26:26;65.50;;;54.25;;
38994;SDS011;24769;18.712;99.000;2023-04-03T12:29:24;67.50;;;55.50;;
38994;SDS011;24769;18.712;99.000;2023-04-03T12:38:25;67.50;;;56.75;;
38994;SDS011;24769;18.712;99.000;2023-04-03T12:41:18;69.00;;;59.75;;
38994;SDS011;24769;18.712;99.000;2023-04-03T12:46:50;65.50;;;54.50;;
38994;SDS011;24769;18.712;99.000;2023-04-03T12:49:39;66.00;;;55.25;;
38994;SDS011;24769;18.712;99.000;2023-04-03T12:52:40;63.75;;;52.75;;
38994;SDS011;24769;18.712;99.000;2023-04-03T12:55:20;64.50;;;53.25;;
38994;SDS011;24769;18.712;99.000;2023-04-03T12:57:48;67.50;;;57.75;;
38994;SDS011;24769;18.712;99.000;2023-04-03T13:02:56;66.75;;;56.00;;
38994;SDS011;24769;18.712;99.000;2023-04-03T13:05:23;68.75;;;59.00;;
38994;SDS011;24769;18.712;99.000;2023-04-03T13:07:52;66.25;;;55.25;;
38994;SDS011;24769;18.712;99.000;2023-04-03T13:10:28;66.75;;;55.00;;
38994;SDS011;24769;18.712;99.000;2023-04-03T13:12:57;67.50;;;56.75;;
38994;SDS011;24769;18.712;99.000;2023-04-03T13:15:43;67.50;;;56.75;;
38994;SDS011;24769;18.712;99.000;2023-04-03T13:18:27;66.75;;;55.75;;
38994;SDS011;24769;18.712;99.000;2023-04-03T13:21:10;63.25;;;52.25;;
38994;SDS011;24769;18.712;99.000;2023-04-03T13:23:46;66.75;;;56.25;;
38994;SDS011;24769;18.712;99.000;2023-04-03T13:26:15;67.00;;;56.50;;
38994;SDS011;24769;18.712;99.000;2023-04-03T13:28:44;66.50;;;56.25;;
38994;SDS011;24769;18.712;99.000;2023-04-03T13:33:41;70.00;;;61.00;;
38994;SDS011;24769;18.712;99.000;2023-04-03T13:36:20;69.25;;;59.50;;
38994;SDS011;24769;18.712;99.000;2023-04-03T13:39:00;66.50;;;56.00;;
38994;SDS011;24769;18.712;99.000;2023-04-03T13:41:38;70.00;;;62.00;;
38994;SDS011;24769;18.712;99.000;2023-04-03T13:46:54;72.25;;;63.00;;
38994;SDS011;24769;18.712;99.000;2023-04-03T13:51:52;74.75;;;69.75;;
38994;SDS011;24769;18.712;99.000;2023-04-03T13:54:20;73.50;;;66.75;;
38994;SDS011;24769;18.712;99.000;2023-04-03T13:56:55;77.50;;;73.50;;
38994;SDS011;24769;18.712;99.000;2023-04-03T13:59:27;73.50;;;66.75;;
38994;SDS011;24769;18.712;99.000;2023-04-03T14:04:32;79.00;;;76.75;;
38994;SDS011;24769;18.712;99.000;2023-04-03T14:07:11;76.75;;;73.00;;
38994;SDS011;24769;18.712;99.000;2023-04-03T14:09:38;79.60;;;79.20;;
38994;SDS011;24769;18.712;99.000;2023-04-03T14:12:07;78.50;;;76.00;;
38994;SDS011;24769;18.712;99.000;2023-04-03T14:14:40;83.00;;;82.00;;
38994;SDS011;24769;18.712;99.000;2023-04-03T14:17:17;82.20;;;82.20;;
38994;SDS011;24769;18.712;99.000;2023-04-03T14:19:49;81.80;;;81.80;;
38994;SDS011;24769;18.712;99.000;2023-04-03T14:22:22;86.20;;;84.40;;
38994;SDS011;24769;18.712;99.000;2023-04-03T14:24:51;86.60;;;85.80;;
38994;SDS011;24769;18.712;99.000;2023-04-03T14:27:19;78.40;;;77.80;;
38994;SDS011;24769;18.712;99.000;2023-04-03T14:30:08;86.20;;;85.20;;
38994;SDS011;24769;18.712;99.000;2023-04-03T14:32:56;87.20;;;86.60;;
38994;SDS011;24769;18.712;99.000;2023-04-03T14:35:25;92.60;;;89.80;;
38994;SDS011;24769;18.712;99.000;2023-04-03T14:37:53;95.20;;;94.00;;
38994;SDS011;24769;18.712;99.000;2023-04-03T14:40:23;93.80;;;92.20;;
38994;SDS011;24769;18.712;99.000;2023-04-03T14:42:51;89.60;;;88.20;;
38994;SDS011;24769;18.712;99.000;2023-04-03T14:45:20;100.20;;;99.00;;
38994;SDS011;24769;18.712;99.000;2023-04-03T14:47:51;101.80;;;101.80;;
38994;SDS011;24769;18.712;99.000;2023-04-03T14:50:24;107.80;;;107.80;;
38994;SDS011;24769;18.712;99.000;2023-04-03T14:52:54;105.80;;;104.20;;
38994;SDS011;24769;18.712;99.000;2023-04-03T14:55:23;102.80;;;102.40;;
38994;SDS011;24769;18.712;99.000;2023-04-03T14:57:51;116.00;;;115.00;;
38994;SDS011;24769;18.712;99.000;2023-04-03T15:00:19;120.20;;;118.60;;
38994;SDS011;24769;18.712;99.000;2023-04-03T15:02:47;119.80;;;119.60;;
38994;SDS011;24769;18.712;99.000;2023-04-03T15:05:14;125.80;;;124.80;;
38994;SDS011;24769;18.712;99.000;2023-04-03T15:07:50;117.00;;;117.00;;
38994;SDS011;24769;18.712;99.000;2023-04-03T15:12:48;113.00;;;113.00;;
38994;SDS011;24769;18.712;99.000;2023-04-03T15:15:17;110.60;;;108.40;;
38994;SDS011;24769;18.712;99.000;2023-04-03T15:17:45;112.20;;;109.20;;
38994;SDS011;24769;18.712;99.000;2023-04-03T15:20:16;115.20;;;114.80;;
38994;SDS011;24769;18.712;99.000;2023-04-03T15:22:45;110.00;;;108.60;;
38994;SDS011;24769;18.712;99.000;2023-04-03T15:25:13;114.20;;;111.40;;
38994;SDS011;24769;18.712;99.000;2023-04-03T15:27:40;121.20;;;120.60;;
38994;SDS011;24769;18.712;99.000;2023-04-03T15:30:08;121.20;;;119.80;;
38994;SDS011;24769;18.712;99.000;2023-04-03T15:32:38;125.60;;;125.60;;
38994;SDS011;24769;18.712;99.000;2023-04-03T15:35:05;127.60;;;126.80;;
38994;SDS011;24769;18.712;99.000;2023-04-03T15:37:32;129.80;;;129.60;;
38994;SDS011;24769;18.712;99.000;2023-04-03T15:39:58;124.20;;;123.60;;
38994;SDS011;24769;18.712;99.000;2023-04-03T15:42:25;132.00;;;132.00;;
38994;SDS011;24769;18.712;99.000;2023-04-03T15:44:52;128.80;;;127.80;;
38994;SDS011;24769;18.712;99.000;2023-04-03T15:47:18;122.80;;;122.60;;
38994;SDS011;24769;18.712;99.000;2023-04-03T15:49:45;131.00;;;128.60;;
38994;SDS011;24769;18.712;99.000;2023-04-03T15:52:11;121.60;;;120.60;;
38994;SDS011;24769;18.712;99.000;2023-04-03T15:54:38;132.40;;;131.60;;
38994;SDS011;24769;18.712;99.000;2023-04-03T15:57:04;130.40;;;129.60;;
38994;SDS011;24769;18.712;99.000;2023-04-03T15:59:31;121.80;;;121.00;;
38994;SDS011;24769;18.712;99.000;2023-04-03T16:01:58;126.00;;;124.80;;
38994;SDS011;24769;18.712;99.000;2023-04-03T16:04:27;129.40;;;128.80;;
38994;SDS011;24769;18.712;99.000;2023-04-03T16:06:54;124.40;;;123.60;;
38994;SDS011;24769;18.712;99.000;2023-04-03T16:09:20;129.20;;;128.80;;
38994;SDS011;24769;18.712;99.000;2023-04-03T16:11:47;128.80;;;126.80;;
38994;SDS011;24769;18.712;99.000;2023-04-03T16:14:13;131.80;;;131.40;;
38994;SDS011;24769;18.712;99.000;2023-04-03T16:16:40;124.40;;;124.40;;